Terminal Aerodrome Forecast
Issued by NWS

Home | Current Version | Previous Version | Graphics & Text | Print | Product List | Glossary On
Versions: 1 2 3 4 5 6 7 8 9 10 11 12 13 14 15 16 17
000
FTUS43 KICT 241731
TAFSLN
TAF
KSLN 241731Z 2418/2518 16015KT P6SM OVC012
     FM242100 15010KT P6SM BKN035
     FM242300 14008KT P6SM VCTS BKN040CB
      TEMPO 2500/2504 3SM TSRA BKN025CB
     FM250600 31010KT P6SM SCT080=

USA.gov is the U.S. government's official web portal to all federal, state and local government web resources and services.